sensor_id;sensor_type;location;lat;lon;timestamp;temperature;humidity
6234;DHT22;3150;52.374;9.724;2022-09-17T00:00:35;12.50;99.90
6234;DHT22;3150;52.374;9.724;2022-09-17T00:06:23;12.30;99.90
6234;DHT22;3150;52.374;9.724;2022-09-17T00:09:13;13.40;99.90
6234;DHT22;3150;52.374;9.724;2022-09-17T00:12:24;12.30;99.90
6234;DHT22;3150;52.374;9.724;2022-09-17T00:15:18;12.30;99.90
6234;DHT22;3150;52.374;9.724;2022-09-17T00:18:13;12.30;99.90
6234;DHT22;3150;52.374;9.724;2022-09-17T00:21:04;12.30;99.90
6234;DHT22;3150;52.374;9.724;2022-09-17T00:23:56;12.30;99.90
6234;DHT22;3150;52.374;9.724;2022-09-17T00:26:47;12.10;99.90
6234;DHT22;3150;52.374;9.724;2022-09-17T00:29:38;12.40;99.90
6234;DHT22;3150;52.374;9.724;2022-09-17T00:32:29;12.30;99.90
6234;DHT22;3150;52.374;9.724;2022-09-17T00:35:40;12.30;99.90
6234;DHT22;3150;52.374;9.724;2022-09-17T00:38:58;12.30;99.90
6234;DHT22;3150;52.374;9.724;2022-09-17T00:44:45;12.30;99.90
6234;DHT22;3150;52.374;9.724;2022-09-17T00:50:33;12.30;99.90
6234;DHT22;3150;52.374;9.724;2022-09-17T00:56:23;12.30;99.90
6234;DHT22;3150;52.374;9.724;2022-09-17T00:59:14;12.30;99.90
6234;DHT22;3150;52.374;9.724;2022-09-17T01:02:11;12.30;99.90
6234;DHT22;3150;52.374;9.724;2022-09-17T01:05:03;12.80;99.90
6234;DHT22;3150;52.374;9.724;2022-09-17T01:08:01;12.20;99.90
6234;DHT22;3150;52.374;9.724;2022-09-17T01:11:16;12.20;99.90
6234;DHT22;3150;52.374;9.724;2022-09-17T01:14:20;12.20;99.90
6234;DHT22;3150;52.374;9.724;2022-09-17T01:17:17;12.30;99.90
6234;DHT22;3150;52.374;9.724;2022-09-17T01:20:48;12.20;99.90
6234;DHT22;3150;52.374;9.724;2022-09-17T01:24:12;12.20;99.90
6234;DHT22;3150;52.374;9.724;2022-09-17T01:31:02;12.30;99.90
6234;DHT22;3150;52.374;9.724;2022-09-17T01:37:00;12.10;99.90
6234;DHT22;3150;52.374;9.724;2022-09-17T01:39:59;12.20;99.90
6234;DHT22;3150;52.374;9.724;2022-09-17T01:42:58;12.20;99.90
6234;DHT22;3150;52.374;9.724;2022-09-17T01:46:00;12.10;99.90
6234;DHT22;3150;52.374;9.724;2022-09-17T01:48:57;12.70;99.90
6234;DHT22;3150;52.374;9.724;2022-09-17T01:51:49;12.10;99.90
6234;DHT22;3150;52.374;9.724;2022-09-17T01:54:56;12.10;99.90
6234;DHT22;3150;52.374;9.724;2022-09-17T01:58:03;12.10;99.90
6234;DHT22;3150;52.374;9.724;2022-09-17T02:01:03;12.10;99.90
6234;DHT22;3150;52.374;9.724;2022-09-17T02:03:59;12.10;99.90
6234;DHT22;3150;52.374;9.724;2022-09-17T02:06:57;11.90;99.90
6234;DHT22;3150;52.374;9.724;2022-09-17T02:09:54;11.80;99.90
6234;DHT22;3150;52.374;9.724;2022-09-17T02:15:42;11.90;99.90
6234;DHT22;3150;52.374;9.724;2022-09-17T02:18:39;11.90;99.90
6234;DHT22;3150;52.374;9.724;2022-09-17T02:21:39;11.80;99.90
6234;DHT22;3150;52.374;9.724;2022-09-17T02:24:46;11.90;99.90
6234;DHT22;3150;52.374;9.724;2022-09-17T02:27:48;12.70;99.90
6234;DHT22;3150;52.374;9.724;2022-09-17T02:31:06;12.70;99.90
6234;DHT22;3150;52.374;9.724;2022-09-17T02:34:01;13.00;99.90
6234;DHT22;3150;52.374;9.724;2022-09-17T02:36:53;12.00;99.90
6234;DHT22;3150;52.374;9.724;2022-09-17T02:39:44;12.00;99.90
6234;DHT22;3150;52.374;9.724;2022-09-17T02:42:44;11.90;99.90
6234;DHT22;3150;52.374;9.724;2022-09-17T02:45:47;12.00;99.90
6234;DHT22;3150;52.374;9.724;2022-09-17T02:49:03;12.00;99.90
6234;DHT22;3150;52.374;9.724;2022-09-17T02:52:03;12.00;99.90
6234;DHT22;3150;52.374;9.724;2022-09-17T02:55:01;11.90;99.90
6234;DHT22;3150;52.374;9.724;2022-09-17T02:58:01;12.00;99.90
6234;DHT22;3150;52.374;9.724;2022-09-17T03:01:01;11.90;99.90
6234;DHT22;3150;52.374;9.724;2022-09-17T03:03:53;11.90;99.90
6234;DHT22;3150;52.374;9.724;2022-09-17T03:06:51;11.70;99.90
6234;DHT22;3150;52.374;9.724;2022-09-17T03:09:42;11.80;99.90
6234;DHT22;3150;52.374;9.724;2022-09-17T03:12:34;11.70;99.90
6234;DHT22;3150;52.374;9.724;2022-09-17T03:15:25;11.50;99.90
6234;DHT22;3150;52.374;9.724;2022-09-17T03:18:18;11.50;99.90
6234;DHT22;3150;52.374;9.724;2022-09-17T03:21:10;12.10;99.90
6234;DHT22;3150;52.374;9.724;2022-09-17T03:24:04;11.30;99.90
6234;DHT22;3150;52.374;9.724;2022-09-17T03:29:48;11.30;99.90
6234;DHT22;3150;52.374;9.724;2022-09-17T03:32:39;11.70;99.90
6234;DHT22;3150;52.374;9.724;2022-09-17T03:35:29;11.20;99.90
6234;DHT22;3150;52.374;9.724;2022-09-17T03:38:20;11.90;99.90
6234;DHT22;3150;52.374;9.724;2022-09-17T03:41:13;11.20;99.90
6234;DHT22;3150;52.374;9.724;2022-09-17T03:44:04;11.20;99.90
6234;DHT22;3150;52.374;9.724;2022-09-17T03:46:56;11.20;99.90
6234;DHT22;3150;52.374;9.724;2022-09-17T03:49:47;11.10;99.90
6234;DHT22;3150;52.374;9.724;2022-09-17T03:52:38;11.20;99.90
6234;DHT22;3150;52.374;9.724;2022-09-17T03:55:28;11.20;99.90
6234;DHT22;3150;52.374;9.724;2022-09-17T03:58:21;11.20;99.90
6234;DHT22;3150;52.374;9.724;2022-09-17T04:01:26;11.20;99.90
6234;DHT22;3150;52.374;9.724;2022-09-17T04:04:18;11.00;99.90
6234;DHT22;3150;52.374;9.724;2022-09-17T04:07:09;11.00;99.90
6234;DHT22;3150;52.374;9.724;2022-09-17T04:10:00;11.00;99.90
6234;DHT22;3150;52.374;9.724;2022-09-17T04:12:51;11.00;99.90
6234;DHT22;3150;52.374;9.724;2022-09-17T04:15:47;11.10;99.90
6234;DHT22;3150;52.374;9.724;2022-09-17T04:18:39;11.70;99.90
6234;DHT22;3150;52.374;9.724;2022-09-17T04:21:29;11.10;99.90
6234;DHT22;3150;52.374;9.724;2022-09-17T04:24:20;12.00;99.90
6234;DHT22;3150;52.374;9.724;2022-09-17T04:27:11;11.00;99.90
6234;DHT22;3150;52.374;9.724;2022-09-17T04:30:02;11.10;99.90
6234;DHT22;3150;52.374;9.724;2022-09-17T04:32:54;11.00;99.90
6234;DHT22;3150;52.374;9.724;2022-09-17T04:35:45;11.10;99.90
6234;DHT22;3150;52.374;9.724;2022-09-17T04:38:35;11.10;99.90
6234;DHT22;3150;52.374;9.724;2022-09-17T04:41:26;11.20;99.90
6234;DHT22;3150;52.374;9.724;2022-09-17T04:50:00;11.40;99.90
6234;DHT22;3150;52.374;9.724;2022-09-17T04:52:51;11.30;99.90
6234;DHT22;3150;52.374;9.724;2022-09-17T04:58:38;11.30;99.90
6234;DHT22;3150;52.374;9.724;2022-09-17T05:01:36;11.20;99.90
6234;DHT22;3150;52.374;9.724;2022-09-17T05:04:28;11.30;99.90
6234;DHT22;3150;52.374;9.724;2022-09-17T05:07:22;12.50;99.90
6234;DHT22;3150;52.374;9.724;2022-09-17T05:10:15;10.40;99.90
6234;DHT22;3150;52.374;9.724;2022-09-17T05:13:06;11.30;99.90
6234;DHT22;3150;52.374;9.724;2022-09-17T05:15:57;11.30;99.90
6234;DHT22;3150;52.374;9.724;2022-09-17T05:18:48;11.20;99.90
6234;DHT22;3150;52.374;9.724;2022-09-17T05:22:12;11.50;99.90
6234;DHT22;3150;52.374;9.724;2022-09-17T05:25:10;11.30;99.90
6234;DHT22;3150;52.374;9.724;2022-09-17T05:28:01;11.80;99.90
6234;DHT22;3150;52.374;9.724;2022-09-17T05:30:51;12.10;99.90
6234;DHT22;3150;52.374;9.724;2022-09-17T05:33:41;12.10;99.90
6234;DHT22;3150;52.374;9.724;2022-09-17T05:36:33;12.30;99.90
6234;DHT22;3150;52.374;9.724;2022-09-17T05:39:23;12.20;99.90
6234;DHT22;3150;52.374;9.724;2022-09-17T05:42:17;12.20;99.90
6234;DHT22;3150;52.374;9.724;2022-09-17T05:45:07;14.50;99.90
6234;DHT22;3150;52.374;9.724;2022-09-17T05:47:59;12.30;99.90
6234;DHT22;3150;52.374;9.724;2022-09-17T05:50:49;12.30;99.90
6234;DHT22;3150;52.374;9.724;2022-09-17T05:53:39;12.50;99.90
6234;DHT22;3150;52.374;9.724;2022-09-17T05:56:30;12.40;99.90
6234;DHT22;3150;52.374;9.724;2022-09-17T05:59:24;12.30;99.90
6234;DHT22;3150;52.374;9.724;2022-09-17T06:02:16;12.30;99.90
6234;DHT22;3150;52.374;9.724;2022-09-17T06:05:07;12.30;99.90
6234;DHT22;3150;52.374;9.724;2022-09-17T06:07:58;12.30;99.90
6234;DHT22;3150;52.374;9.724;2022-09-17T06:10:48;12.70;99.90
6234;DHT22;3150;52.374;9.724;2022-09-17T06:13:38;12.50;99.90
6234;DHT22;3150;52.374;9.724;2022-09-17T06:28:42;16.00;99.90
6234;DHT22;3150;52.374;9.724;2022-09-17T06:34:26;14.50;99.90
6234;DHT22;3150;52.374;9.724;2022-09-17T06:37:18;14.00;99.90
6234;DHT22;3150;52.374;9.724;2022-09-17T06:49:11;17.60;99.90
6234;DHT22;3150;52.374;9.724;2022-09-17T06:52:04;18.60;99.90
6234;DHT22;3150;52.374;9.724;2022-09-17T06:54:54;18.80;99.90
6234;DHT22;3150;52.374;9.724;2022-09-17T06:57:45;19.60;99.90
6234;DHT22;3150;52.374;9.724;2022-09-17T07:03:33;18.30;99.90
6234;DHT22;3150;52.374;9.724;2022-09-17T07:18:15;15.50;99.90
6234;DHT22;3150;52.374;9.724;2022-09-17T07:21:06;16.00;99.90
6234;DHT22;3150;52.374;9.724;2022-09-17T07:23:57;17.40;99.90
6234;DHT22;3150;52.374;9.724;2022-09-17T07:26:49;20.10;99.90
6234;DHT22;3150;52.374;9.724;2022-09-17T07:29:39;19.50;93.00
6234;DHT22;3150;52.374;9.724;2022-09-17T07:32:30;19.80;88.30
6234;DHT22;3150;52.374;9.724;2022-09-17T07:35:24;20.70;80.20
6234;DHT22;3150;52.374;9.724;2022-09-17T07:38:16;21.00;75.30
6234;DHT22;3150;52.374;9.724;2022-09-17T07:41:09;21.40;72.80
6234;DHT22;3150;52.374;9.724;2022-09-17T07:44:12;21.80;67.00
6234;DHT22;3150;52.374;9.724;2022-09-17T07:47:08;21.90;67.60
6234;DHT22;3150;52.374;9.724;2022-09-17T07:49:58;22.10;65.40
6234;DHT22;3150;52.374;9.724;2022-09-17T07:52:52;22.50;62.50
6234;DHT22;3150;52.374;9.724;2022-09-17T07:55:50;21.80;61.70
6234;DHT22;3150;52.374;9.724;2022-09-17T08:01:58;22.20;62.30
6234;DHT22;3150;52.374;9.724;2022-09-17T08:28:29;23.00;58.20
6234;DHT22;3150;52.374;9.724;2022-09-17T08:31:30;23.50;56.30
6234;DHT22;3150;52.374;9.724;2022-09-17T08:34:27;23.30;56.40
6234;DHT22;3150;52.374;9.724;2022-09-17T08:40:26;23.60;59.70
6234;DHT22;3150;52.374;9.724;2022-09-17T08:43:21;24.20;53.80
6234;DHT22;3150;52.374;9.724;2022-09-17T08:46:23;23.40;56.20
6234;DHT22;3150;52.374;9.724;2022-09-17T08:49:23;22.50;53.40
6234;DHT22;3150;52.374;9.724;2022-09-17T08:55:36;24.60;53.40
6234;DHT22;3150;52.374;9.724;2022-09-17T09:08:13;22.10;54.60
6234;DHT22;3150;52.374;9.724;2022-09-17T09:11:16;21.60;58.90
6234;DHT22;3150;52.374;9.724;2022-09-17T09:14:31;20.70;59.70
6234;DHT22;3150;52.374;9.724;2022-09-17T09:17:52;21.10;58.40
6234;DHT22;3150;52.374;9.724;2022-09-17T09:20:51;21.00;59.60
6234;DHT22;3150;52.374;9.724;2022-09-17T09:26:56;21.50;58.10
6234;DHT22;3150;52.374;9.724;2022-09-17T09:30:00;22.20;57.30
6234;DHT22;3150;52.374;9.724;2022-09-17T09:35:58;23.80;51.20
6234;DHT22;3150;52.374;9.724;2022-09-17T09:38:54;23.90;51.50
6234;DHT22;3150;52.374;9.724;2022-09-17T09:42:26;22.80;52.50
6234;DHT22;3150;52.374;9.724;2022-09-17T09:45:49;21.70;55.50
6234;DHT22;3150;52.374;9.724;2022-09-17T09:49:19;20.70;58.70
6234;DHT22;3150;52.374;9.724;2022-09-17T10:04:40;20.40;63.50
6234;DHT22;3150;52.374;9.724;2022-09-17T10:11:02;19.30;62.90
6234;DHT22;3150;52.374;9.724;2022-09-17T10:14:18;19.70;61.70
6234;DHT22;3150;52.374;9.724;2022-09-17T10:17:26;19.70;59.00
6234;DHT22;3150;52.374;9.724;2022-09-17T10:20:48;19.60;62.00
6234;DHT22;3150;52.374;9.724;2022-09-17T10:23:53;18.40;60.20
6234;DHT22;3150;52.374;9.724;2022-09-17T10:39:28;18.10;65.20
6234;DHT22;3150;52.374;9.724;2022-09-17T11:10:12;19.10;61.40
6234;DHT22;3150;52.374;9.724;2022-09-17T11:25:32;17.80;63.50
6234;DHT22;3150;52.374;9.724;2022-09-17T11:28:44;18.10;66.60
6234;DHT22;3150;52.374;9.724;2022-09-17T11:32:01;17.50;71.00
6234;DHT22;3150;52.374;9.724;2022-09-17T11:52:49;17.00;70.30
6234;DHT22;3150;52.374;9.724;2022-09-17T11:59:11;16.80;75.00
6234;DHT22;3150;52.374;9.724;2022-09-17T12:08:41;17.00;84.60
6234;DHT22;3150;52.374;9.724;2022-09-17T12:11:39;17.20;76.20
6234;DHT22;3150;52.374;9.724;2022-09-17T15:38:24;13.30;99.90
6234;DHT22;3150;52.374;9.724;2022-09-17T15:44:22;13.40;99.90
6234;DHT22;3150;52.374;9.724;2022-09-17T15:47:33;13.50;99.90
6234;DHT22;3150;52.374;9.724;2022-09-17T15:56:29;13.20;99.90
6234;DHT22;3150;52.374;9.724;2022-09-17T15:59:23;13.10;99.90
6234;DHT22;3150;52.374;9.724;2022-09-17T16:02:26;13.50;99.90
6234;DHT22;3150;52.374;9.724;2022-09-17T16:05:49;13.10;99.90
6234;DHT22;3150;52.374;9.724;2022-09-17T16:26:45;12.80;99.90
6234;DHT22;3150;52.374;9.724;2022-09-17T16:45:13;12.70;99.90
6234;DHT22;3150;52.374;9.724;2022-09-17T16:48:15;12.70;99.90
6234;DHT22;3150;52.374;9.724;2022-09-17T16:57:48;12.00;99.90
6234;DHT22;3150;52.374;9.724;2022-09-17T17:01:28;12.00;99.90
6234;DHT22;3150;52.374;9.724;2022-09-17T17:59:54;11.70;99.90
6234;DHT22;3150;52.374;9.724;2022-09-17T18:08:37;11.50;99.90
6234;DHT22;3150;52.374;9.724;2022-09-17T18:58:27;11.40;99.90
6234;DHT22;3150;52.374;9.724;2022-09-17T19:19:57;13.50;99.90
6234;DHT22;3150;52.374;9.724;2022-09-17T19:28:44;11.60;99.90
6234;DHT22;3150;52.374;9.724;2022-09-17T19:34:42;11.60;99.90
6234;DHT22;3150;52.374;9.724;2022-09-17T20:48:28;11.00;99.90
6234;DHT22;3150;52.374;9.724;2022-09-17T21:22:15;11.00;99.90
6234;DHT22;3150;52.374;9.724;2022-09-17T21:34:21;10.90;99.90
6234;DHT22;3150;52.374;9.724;2022-09-17T21:43:34;10.90;99.90
6234;DHT22;3150;52.374;9.724;2022-09-17T21:46:27;11.10;99.90
6234;DHT22;3150;52.374;9.724;2022-09-17T21:49:24;11.10;99.90
6234;DHT22;3150;52.374;9.724;2022-09-17T21:52:29;11.10;99.90
6234;DHT22;3150;52.374;9.724;2022-09-17T21:55:22;11.50;99.90
6234;DHT22;3150;52.374;9.724;2022-09-17T22:01:12;11.00;99.90
6234;DHT22;3150;52.374;9.724;2022-09-17T22:04:03;11.10;99.90
6234;DHT22;3150;52.374;9.724;2022-09-17T22:12:38;11.10;99.90
6234;DHT22;3150;52.374;9.724;2022-09-17T22:18:26;11.00;99.90
6234;DHT22;3150;52.374;9.724;2022-09-17T22:21:19;11.10;99.90
6234;DHT22;3150;52.374;9.724;2022-09-17T22:24:15;11.10;99.90
6234;DHT22;3150;52.374;9.724;2022-09-17T22:27:11;11.00;99.90
6234;DHT22;3150;52.374;9.724;2022-09-17T22:33:08;11.00;99.90
6234;DHT22;3150;52.374;9.724;2022-09-17T22:36:07;13.20;99.90
6234;DHT22;3150;52.374;9.724;2022-09-17T22:38:58;11.20;99.90
6234;DHT22;3150;52.374;9.724;2022-09-17T22:44:37;11.10;99.90
6234;DHT22;3150;52.374;9.724;2022-09-17T22:47:40;11.10;99.90
6234;DHT22;3150;52.374;9.724;2022-09-17T22:50:30;11.70;99.90
6234;DHT22;3150;52.374;9.724;2022-09-17T22:53:27;10.90;99.90
6234;DHT22;3150;52.374;9.724;2022-09-17T22:56:20;9.70;99.90
6234;DHT22;3150;52.374;9.724;2022-09-17T22:59:11;11.90;99.90
6234;DHT22;3150;52.374;9.724;2022-09-17T23:07:48;10.70;99.90
6234;DHT22;3150;52.374;9.724;2022-09-17T23:10:42;10.60;99.90
6234;DHT22;3150;52.374;9.724;2022-09-17T23:13:40;10.50;99.90
6234;DHT22;3150;52.374;9.724;2022-09-17T23:16:47;10.50;99.90
6234;DHT22;3150;52.374;9.724;2022-09-17T23:25:31;10.10;99.90
6234;DHT22;3150;52.374;9.724;2022-09-17T23:34:46;9.90;99.90
6234;DHT22;3150;52.374;9.724;2022-09-17T23:43:26;9.80;99.90
6234;DHT22;3150;52.374;9.724;2022-09-17T23:46:35;9.80;99.90
6234;DHT22;3150;52.374;9.724;2022-09-17T23:52:45;9.80;99.90
6234;DHT22;3150;52.374;9.724;2022-09-17T23:55:44;9.80;99.90
